Bookmark and Share
Track history (hours):
 

Christina O

Operator: V Ships Leisure SAM

Last reported at 2014-Apr-25 04:33 UTC. Time now 2014-Apr-25 05:46 UTC.
Position N 40°34' E 014°08'.

Length 186 m; draft 6.1 m.

Type: Ship. MMSI: 308322000.

NotesDate/timePositionNaut miles runAvg speedWind from/ knotsBaromVisibWave heightAir tempDewpointWater temp
2014-Apr-25 04:33N 40°34' E 014°08'1615.6
2014-Apr-25 03:33N 40°19' E 014°16'13316.3
2014-Apr-24 19:23N 38°22' E 015°39'1113.4
2014-Apr-24 18:33N 38°11' E 015°37'37916.3
2014-Apr-23 19:15N 36°26' E 023°14'4018.9
2014-Apr-23 17:07N 37°04' E 023°29'1118.7
2014-Apr-23 16:33N 37°13' E 023°35'2018.3
2014-Apr-23 15:30N 37°32' E 023°41'1718.2
2014-Apr-23 14:33N 37°49' E 023°37'7 7.1
2014-Apr-23 13:32N 37°56' E 023°38'0 0.0
2014-Apr-23 12:32N 37°56' E 023°38'0 0.0
2014-Apr-23 11:32N 37°56' E 023°38'0 0.0
2014-Apr-23 10:32N 37°56' E 023°38'0 0.0
2014-Apr-23 09:32N 37°56' E 023°38'0 0.0
2014-Apr-23 08:32N 37°56' E 023°38'0 0.0
2014-Apr-23 07:32N 37°56' E 023°38'0 0.0
2014-Apr-23 06:29N 37°56' E 023°38'0 0.0
2014-Apr-23 05:32N 37°56' E 023°38'2 1.7
2014-Apr-23 04:33N 37°55' E 023°36'3 2.9
2014-Apr-23 03:33N 37°53' E 023°38'1514.3
2014-Apr-23 02:33N 37°40' E 023°47'2612.9
2014-Apr-23 00:32N 37°44' E 024°19'1414.8
2014-Apr-22 23:33N 37°54' E 024°33'2215.0
2014-Apr-22 22:05N 38°11' E 024°52'1315.0
2014-Apr-22 21:12N 38°20' E 025°04'1014.7
2014-Apr-22 20:33N 38°27' E 025°13'1514.8
2014-Apr-22 19:33N 38°37' E 025°26'2014.9
2014-Apr-22 18:15N 38°45' E 025°49'57 4.4
2014-Apr-22 05:17N 39°42' E 025°45'1114.5
2014-Apr-22 04:33N 39°52' E 025°49'6014.9
2014-Apr-22 00:34N 40°28' E 026°51'  
2014-Apr-17 17:10N 34°39' E 032°24'915.3
2014-Apr-17 16:33N 34°36' E 032°35'1515.5
2014-Apr-17 15:34N 34°32' E 032°53'1111.0
2014-Apr-17 14:34N 34°37' E 033°05'4 3.5
2014-Apr-17 13:33N 34°39' E 033°01'0 0.0
2014-Apr-17 12:31N 34°39' E 033°01'0 0.0
2014-Apr-17 11:31N 34°39' E 033°01'0 0.0
2014-Apr-17 10:31N 34°39' E 033°01'0 0.0
2014-Apr-17 09:31N 34°39' E 033°01'0 0.0
2014-Apr-17 08:31N 34°39' E 033°01'0 0.0
2014-Apr-17 07:31N 34°39' E 033°01'0 0.0
2014-Apr-17 06:31N 34°39' E 033°01'0 0.0
2014-Apr-17 05:34N 34°39' E 033°01'1 1.3
2014-Apr-17 04:34N 34°39' E 033°03'1110.7
2014-Apr-17 03:34N 34°30' E 033°08'1515.0
2014-Apr-17 02:33N 34°15' E 033°12'2015.2
2014-Apr-17 01:15N 33°56' E 033°18'1115.4
2014-Apr-17 00:33N 33°45' E 033°21'1615.8
2014-Apr-16 23:33N 33°30' E 033°26'1616.0
2014-Apr-16 22:33N 33°15' E 033°31'3216.0
2014-Apr-16 20:33N 32°44' E 033°44'1616.4
2014-Apr-16 19:33N 32°29' E 033°50'1616.0
2014-Apr-16 18:33N 32°14' E 033°57'1515.0
2014-Apr-16 17:33N 32°02' E 034°08'1616.5
2014-Apr-16 16:33N 31°55' E 034°25'26 1.6
2014-Apr-16 00:25N 32°19' E 034°38'1011.5
2014-Apr-15 23:33N 32°29' E 034°42'1211.7
2014-Apr-15 22:33N 32°40' E 034°45'1211.7
2014-Apr-15 21:33N 32°51' E 034°50'9 1.3
2014-Apr-15 14:32N 32°49' E 035°00'0 0.0
2014-Apr-15 07:32N 32°49' E 035°00'0 0.0
2014-Apr-15 06:32N 32°49' E 035°00'0 0.0
2014-Apr-15 05:32N 32°49' E 035°00'  

Dump ship's entire track history

sailing weather and tide predictions

Christina O — C6FN7 — position and weather